createdAt,value
2023-02-06T00:00:53.282Z,87.81
2023-02-06T00:03:20.526Z,87.61
2023-02-06T00:05:58.905Z,87.83
2023-02-06T00:08:27.815Z,87.92
2023-02-06T00:10:55.184Z,87.45
2023-02-06T00:13:22.828Z,88.01
2023-02-06T00:15:49.972Z,87.57
2023-02-06T00:18:16.839Z,87.10
2023-02-06T00:20:43.724Z,87.27
2023-02-06T00:23:10.689Z,88.39
2023-02-06T00:25:37.760Z,89.17
2023-02-06T00:28:05.159Z,89.00
2023-02-06T00:30:32.152Z,89.22
2023-02-06T00:32:59.131Z,89.73
2023-02-06T00:35:26.312Z,89.29
2023-02-06T00:37:53.377Z,89.26
2023-02-06T00:40:20.334Z,89.22
2023-02-06T00:42:47.306Z,89.25
2023-02-06T00:45:14.209Z,87.96
2023-02-06T00:47:41.350Z,88.65
2023-02-06T00:50:09.755Z,88.41
2023-02-06T00:52:36.675Z,88.40
2023-02-06T00:55:05.274Z,88.08
2023-02-06T00:57:32.254Z,88.11
2023-02-06T00:59:59.136Z,88.72
2023-02-06T01:02:27.041Z,88.12
2023-02-06T01:04:53.901Z,88.03
2023-02-06T01:07:20.819Z,87.91
2023-02-06T01:09:47.752Z,87.39
2023-02-06T01:12:14.687Z,87.22
2023-02-06T01:14:41.663Z,87.19
2023-02-06T01:17:11.801Z,87.16
2023-02-06T01:19:39.606Z,86.67
2023-02-06T01:22:07.168Z,86.59
2023-02-06T01:24:34.118Z,86.48
2023-02-06T01:27:01.011Z,87.01
2023-02-06T01:29:27.861Z,86.93
2023-02-06T01:31:54.813Z,86.31
2023-02-06T01:34:21.695Z,86.85
2023-02-06T01:36:48.632Z,86.34
2023-02-06T01:39:16.245Z,86.41
2023-02-06T01:41:43.283Z,86.42
2023-02-06T01:44:22.691Z,86.37
2023-02-06T01:46:55.912Z,86.27
2023-02-06T01:49:27.492Z,86.47
2023-02-06T01:52:07.883Z,86.55
2023-02-06T01:54:35.503Z,86.32
2023-02-06T01:57:06.038Z,86.35
2023-02-06T01:59:35.071Z,85.71
2023-02-06T02:02:02.606Z,86.21
2023-02-06T02:04:33.329Z,86.18
2023-02-06T02:07:24.367Z,86.14
2023-02-06T02:09:52.587Z,86.47
2023-02-06T02:12:20.234Z,86.22
2023-02-06T02:14:49.615Z,85.60
2023-02-06T02:17:51.879Z,86.53
2023-02-06T02:20:43.589Z,86.37
2023-02-06T02:23:25.406Z,85.97
2023-02-06T02:26:33.836Z,85.74
2023-02-06T02:29:15.619Z,85.31
2023-02-06T02:31:57.630Z,86.21
2023-02-06T02:34:53.949Z,85.89
2023-02-06T02:37:52.397Z,85.20
2023-02-06T02:40:28.630Z,85.13
2023-02-06T02:43:20.535Z,85.69
2023-02-06T02:46:00.473Z,85.50
2023-02-06T02:48:32.631Z,85.08
2023-02-06T02:51:01.044Z,86.14
2023-02-06T02:53:28.365Z,85.79
2023-02-06T02:55:55.853Z,85.02
2023-02-06T02:58:28.602Z,85.95
2023-02-06T03:01:01.578Z,85.85
2023-02-06T03:03:32.632Z,85.90
2023-02-06T03:06:16.727Z,85.96
2023-02-06T03:08:56.271Z,85.90
2023-02-06T03:11:23.951Z,85.88
2023-02-06T03:14:03.719Z,86.22
2023-02-06T03:16:40.843Z,86.08
2023-02-06T03:19:07.816Z,85.70
2023-02-06T03:21:37.142Z,86.53
2023-02-06T03:24:11.025Z,86.93
2023-02-06T03:26:40.491Z,86.98
2023-02-06T03:29:12.371Z,86.64
2023-02-06T03:31:50.331Z,87.20
2023-02-06T03:34:44.726Z,86.36
2023-02-06T03:37:12.961Z,87.08
2023-02-06T03:39:40.691Z,86.87
2023-02-06T03:42:11.909Z,86.24
2023-02-06T03:44:44.674Z,85.92
2023-02-06T03:47:12.659Z,85.31
2023-02-06T03:49:41.676Z,86.07
2023-02-06T03:52:13.428Z,85.72
2023-02-06T03:54:46.822Z,85.49
2023-02-06T03:57:19.434Z,85.48
2023-02-06T03:59:47.334Z,85.32
2023-02-06T04:02:15.755Z,86.32
2023-02-06T04:04:44.992Z,86.14
2023-02-06T04:07:30.068Z,85.11
2023-02-06T04:09:57.107Z,84.29
2023-02-06T04:12:24.544Z,85.23
2023-02-06T04:14:52.200Z,86.26
2023-02-06T04:17:38.477Z,86.68
2023-02-06T04:20:07.206Z,86.28
2023-02-06T04:22:34.100Z,86.12
2023-02-06T04:25:01.124Z,85.94
2023-02-06T04:27:28.124Z,84.95
2023-02-06T04:29:54.993Z,84.99
2023-02-06T04:32:21.877Z,84.78
2023-02-06T04:34:48.953Z,85.13
2023-02-06T04:37:15.860Z,85.09
2023-02-06T04:39:42.784Z,85.09
2023-02-06T04:42:09.750Z,84.12
2023-02-06T04:44:38.564Z,83.42
2023-02-06T04:47:06.262Z,83.38
2023-02-06T04:49:33.167Z,82.07
2023-02-06T04:52:00.084Z,82.33
2023-02-06T04:54:26.946Z,83.51
2023-02-06T04:56:53.926Z,83.37
2023-02-06T04:59:20.850Z,84.79
2023-02-06T05:01:48.553Z,84.92
2023-02-06T05:04:15.526Z,85.36
2023-02-06T05:06:42.427Z,85.78
2023-02-06T05:09:10.033Z,87.20
2023-02-06T05:11:36.933Z,87.30
2023-02-06T05:14:03.878Z,87.59
2023-02-06T05:16:30.764Z,87.79
2023-02-06T05:18:58.074Z,86.58
2023-02-06T05:21:26.455Z,86.50
2023-02-06T05:23:53.420Z,86.72
2023-02-06T05:26:20.833Z,87.12
2023-02-06T05:28:47.694Z,86.51
2023-02-06T05:31:19.907Z,86.38
2023-02-06T05:33:51.772Z,86.59
2023-02-06T05:36:20.170Z,86.92
2023-02-06T05:38:47.784Z,85.45
2023-02-06T05:41:15.348Z,84.70
2023-02-06T05:43:42.294Z,83.42
2023-02-06T05:46:09.782Z,82.95
2023-02-06T05:48:36.857Z,81.61
2023-02-06T05:51:03.969Z,81.17
2023-02-06T05:53:30.823Z,79.58
2023-02-06T05:55:58.041Z,77.00
2023-02-06T05:58:25.182Z,74.84
2023-02-06T06:00:52.157Z,73.46
2023-02-06T06:03:19.252Z,71.73
2023-02-06T06:05:46.263Z,71.13
2023-02-06T06:08:13.212Z,69.85
2023-02-06T06:10:40.159Z,68.45
2023-02-06T06:13:07.250Z,67.69
2023-02-06T06:15:34.791Z,67.09
2023-02-06T06:18:02.041Z,67.69
2023-02-06T06:20:28.914Z,66.16
2023-02-06T06:22:55.884Z,66.86
2023-02-06T06:25:22.794Z,65.77
2023-02-06T06:27:49.796Z,64.91
2023-02-06T06:30:17.010Z,64.54
2023-02-06T06:32:43.914Z,63.59
2023-02-06T06:35:11.033Z,66.26
2023-02-06T06:37:37.978Z,71.72
2023-02-06T06:40:05.162Z,75.91
2023-02-06T06:42:32.048Z,77.87
2023-02-06T06:44:58.897Z,79.43
2023-02-06T06:47:25.843Z,82.32
2023-02-06T06:49:52.711Z,82.46
2023-02-06T06:52:25.306Z,82.47
2023-02-06T06:54:53.262Z,77.64
2023-02-06T06:57:21.248Z,75.07
2023-02-06T06:59:48.456Z,74.15
2023-02-06T07:02:15.763Z,75.41
2023-02-06T07:04:42.852Z,75.67
2023-02-06T07:07:09.958Z,76.41
2023-02-06T07:09:36.938Z,74.64
2023-02-06T07:12:04.118Z,76.10
2023-02-06T07:14:30.994Z,76.14
2023-02-06T07:16:59.287Z,76.99
2023-02-06T07:19:26.262Z,78.45
2023-02-06T07:21:53.128Z,76.93
2023-02-06T07:24:20.066Z,76.62
2023-02-06T07:26:47.069Z,74.99
2023-02-06T07:29:14.154Z,75.33
2023-02-06T07:31:41.118Z,73.79
2023-02-06T07:34:08.135Z,71.81
2023-02-06T07:36:35.912Z,70.81
2023-02-06T07:39:04.483Z,69.31
2023-02-06T07:41:31.436Z,70.71
2023-02-06T07:43:58.350Z,73.35
2023-02-06T07:46:25.342Z,74.09
2023-02-06T07:48:52.381Z,73.68
2023-02-06T07:51:19.480Z,72.75
2023-02-06T07:53:46.375Z,72.60
2023-02-06T07:56:15.795Z,73.44
2023-02-06T07:58:42.930Z,71.54
2023-02-06T08:01:10.556Z,70.42
2023-02-06T08:03:37.852Z,66.23
2023-02-06T08:06:15.341Z,67.01
2023-02-06T08:08:43.306Z,65.96
2023-02-06T08:11:13.055Z,66.11
2023-02-06T08:13:39.976Z,66.44
2023-02-06T08:16:08.966Z,64.17
2023-02-06T08:18:37.167Z,62.94
2023-02-06T08:21:06.582Z,62.35
2023-02-06T08:23:33.674Z,63.42
2023-02-06T08:26:05.442Z,66.29
2023-02-06T08:28:32.898Z,63.39
2023-02-06T08:30:59.988Z,62.94
2023-02-06T08:33:27.104Z,61.75
2023-02-06T08:35:54.294Z,62.63
2023-02-06T08:38:21.304Z,64.01
2023-02-06T08:40:48.162Z,63.54
2023-02-06T08:43:15.038Z,60.57
2023-02-06T08:45:41.937Z,58.26
2023-02-06T08:48:08.828Z,55.05
2023-02-06T08:50:35.974Z,53.33
2023-02-06T08:53:03.280Z,57.90
2023-02-06T08:55:30.294Z,57.02
2023-02-06T08:57:57.165Z,53.98
2023-02-06T09:00:24.084Z,57.18
2023-02-06T09:02:53.618Z,56.27
2023-02-06T09:05:21.429Z,56.51
2023-02-06T09:07:48.819Z,55.58
2023-02-06T09:10:26.986Z,57.30
2023-02-06T09:12:55.032Z,58.01
2023-02-06T09:15:22.251Z,59.32
2023-02-06T09:17:49.189Z,57.33
2023-02-06T09:20:16.362Z,57.64
2023-02-06T09:22:44.725Z,55.44
2023-02-06T09:25:11.876Z,56.62
2023-02-06T09:27:38.913Z,56.52
2023-02-06T09:30:06.266Z,55.17
2023-02-06T09:32:33.142Z,54.44
2023-02-06T09:35:00.103Z,54.89
2023-02-06T09:37:27.405Z,53.89
2023-02-06T09:39:54.342Z,52.16
2023-02-06T09:42:29.572Z,47.58
2023-02-06T09:45:08.646Z,48.26
2023-02-06T09:47:41.101Z,47.71
2023-02-06T09:50:22.393Z,46.88
2023-02-06T09:53:18.203Z,47.03
2023-02-06T09:55:51.018Z,48.00
2023-02-06T09:58:36.557Z,51.51
2023-02-06T10:01:34.616Z,52.12
2023-02-06T10:04:17.445Z,52.18
2023-02-06T10:07:04.505Z,49.79
2023-02-06T10:09:37.158Z,46.23
2023-02-06T10:12:15.211Z,45.18
2023-02-06T10:14:48.243Z,48.14
2023-02-06T10:17:24.236Z,48.74
2023-02-06T10:20:11.697Z,52.41
2023-02-06T10:22:54.638Z,49.58
2023-02-06T10:25:29.051Z,50.31
2023-02-06T10:28:04.901Z,54.10
2023-02-06T10:30:58.085Z,55.89
2023-02-06T10:33:33.882Z,55.73
2023-02-06T10:36:16.094Z,55.36
2023-02-06T10:38:43.026Z,56.27
2023-02-06T10:41:31.627Z,55.30
2023-02-06T10:44:06.138Z,54.48
2023-02-06T10:46:48.357Z,58.40
2023-02-06T10:49:36.944Z,57.88
2023-02-06T10:52:35.125Z,59.69
2023-02-06T10:55:34.578Z,59.26
2023-02-06T10:58:15.466Z,58.15
2023-02-06T11:00:44.958Z,59.58
2023-02-06T11:03:17.816Z,60.70
2023-02-06T11:05:44.772Z,59.55
2023-02-06T11:08:22.035Z,59.78
2023-02-06T11:10:49.621Z,58.98
2023-02-06T11:13:34.634Z,57.87
2023-02-06T11:16:13.111Z,59.42
2023-02-06T11:18:43.488Z,58.87
2023-02-06T11:21:13.017Z,59.17
2023-02-06T11:23:40.880Z,59.89
2023-02-06T11:26:25.445Z,58.78
2023-02-06T11:29:14.178Z,60.79
2023-02-06T11:31:46.188Z,61.66
2023-02-06T11:34:44.302Z,62.29
2023-02-06T11:37:37.190Z,61.41
2023-02-06T11:40:19.100Z,60.06
2023-02-06T11:43:07.003Z,59.89
2023-02-06T11:45:35.051Z,61.42
2023-02-06T11:48:02.784Z,61.32
2023-02-06T11:50:34.697Z,61.26
2023-02-06T11:53:16.952Z,60.76
2023-02-06T11:55:45.811Z,62.00
2023-02-06T11:58:12.673Z,59.52
2023-02-06T12:00:58.784Z,56.68
2023-02-06T12:03:38.221Z,59.96
2023-02-06T12:06:20.696Z,62.34
2023-02-06T12:08:54.156Z,63.67
2023-02-06T12:11:33.760Z,65.89
2023-02-06T12:14:19.308Z,69.49
2023-02-06T12:16:47.180Z,70.51
2023-02-06T12:19:25.280Z,72.49
2023-02-06T12:21:58.053Z,71.89
2023-02-06T12:24:31.607Z,71.30
2023-02-06T12:27:02.676Z,65.48
2023-02-06T12:29:40.330Z,60.13
2023-02-06T12:32:18.309Z,59.84
2023-02-06T12:35:00.562Z,58.27
2023-02-06T12:37:44.035Z,61.08
2023-02-06T12:40:29.030Z,59.59
2023-02-06T12:43:07.093Z,55.84
2023-02-06T12:46:00.037Z,56.33
2023-02-06T12:48:45.530Z,55.05
2023-02-06T12:51:32.724Z,56.97
2023-02-06T12:54:06.785Z,55.42
2023-02-06T12:56:42.085Z,53.14
2023-02-06T12:59:34.707Z,50.35
2023-02-06T13:02:22.560Z,49.93
2023-02-06T13:04:51.867Z,51.46
2023-02-06T13:07:23.901Z,53.50
2023-02-06T13:09:55.072Z,54.38
2023-02-06T13:12:23.918Z,53.79
2023-02-06T13:15:00.483Z,54.20
2023-02-06T13:17:36.918Z,52.91
2023-02-06T13:20:10.939Z,51.39
2023-02-06T13:22:38.122Z,53.54
2023-02-06T13:25:26.550Z,52.15
2023-02-06T13:28:06.166Z,53.97
2023-02-06T13:30:32.991Z,54.51
2023-02-06T13:33:11.709Z,55.51
2023-02-06T13:35:55.752Z,53.55
2023-02-06T13:38:22.581Z,52.22
2023-02-06T13:41:15.220Z,51.73
2023-02-06T13:43:50.914Z,52.00
2023-02-06T13:46:21.938Z,52.83
2023-02-06T13:49:03.755Z,53.82
2023-02-06T13:51:52.728Z,55.15
2023-02-06T13:54:43.683Z,53.86
2023-02-06T13:57:31.996Z,53.72
2023-02-06T14:00:04.006Z,52.51
2023-02-06T14:02:41.255Z,50.51
2023-02-06T14:05:19.638Z,51.45
2023-02-06T14:07:55.369Z,50.11
2023-02-06T14:11:05.557Z,54.29
2023-02-06T14:13:35.131Z,58.19
2023-02-06T14:16:12.473Z,60.66
2023-02-06T14:18:45.340Z,59.50
2023-02-06T14:21:27.296Z,61.41
2023-02-06T14:24:18.511Z,64.82
2023-02-06T14:26:45.385Z,63.34
2023-02-06T14:29:35.953Z,62.13
2023-02-06T14:32:08.632Z,61.62
2023-02-06T14:34:46.386Z,62.74
2023-02-06T14:37:16.670Z,62.74
2023-02-06T14:39:45.087Z,64.69
2023-02-06T14:42:26.370Z,65.79
2023-02-06T14:45:01.915Z,66.28
2023-02-06T14:47:33.911Z,67.73
2023-02-06T14:50:01.810Z,68.51
2023-02-06T14:52:33.351Z,69.64
2023-02-06T14:55:00.368Z,71.87
2023-02-06T14:57:30.839Z,71.14
2023-02-06T15:00:17.324Z,70.47
2023-02-06T15:02:44.287Z,71.21
2023-02-06T15:05:24.978Z,71.42
2023-02-06T15:08:00.361Z,72.21
2023-02-06T15:10:28.866Z,71.85
2023-02-06T15:12:55.861Z,71.09
2023-02-06T15:15:26.039Z,70.63
2023-02-06T15:18:05.069Z,70.63
2023-02-06T15:20:41.702Z,71.78
2023-02-06T15:23:35.659Z,70.51
2023-02-06T15:26:28.296Z,71.83
2023-02-06T15:29:00.416Z,71.58
2023-02-06T15:31:28.687Z,71.10
2023-02-06T15:33:59.060Z,71.53
2023-02-06T15:36:36.884Z,70.69
2023-02-06T15:39:07.872Z,71.37
2023-02-06T15:41:35.507Z,71.95
2023-02-06T15:44:27.372Z,72.94
2023-02-06T15:46:56.859Z,73.83
2023-02-06T15:49:32.609Z,72.64
2023-02-06T15:51:59.772Z,72.77
2023-02-06T15:54:28.333Z,73.06
2023-02-06T15:57:05.956Z,73.15
2023-02-06T15:59:39.156Z,74.16
2023-02-06T16:02:08.081Z,73.57
2023-02-06T16:04:42.599Z,72.54
2023-02-06T16:07:27.707Z,72.03
2023-02-06T16:09:59.707Z,72.41
2023-02-06T16:12:26.819Z,71.32
2023-02-06T16:14:59.219Z,69.80
2023-02-06T16:17:41.253Z,69.76
2023-02-06T16:20:34.336Z,68.35
2023-02-06T16:23:53.338Z,67.86
2023-02-06T16:26:26.106Z,68.32
2023-02-06T16:29:11.449Z,68.31
2023-02-06T16:31:42.733Z,69.07
2023-02-06T16:34:31.463Z,68.55
2023-02-06T16:36:58.375Z,69.94
2023-02-06T16:39:25.344Z,69.67
2023-02-06T16:41:53.764Z,70.47
2023-02-06T16:44:21.064Z,71.04
2023-02-06T16:46:48.136Z,71.39
2023-02-06T16:49:20.757Z,70.13
2023-02-06T16:51:50.126Z,71.77
2023-02-06T16:54:28.057Z,72.95
2023-02-06T16:56:57.558Z,72.51
2023-02-06T16:59:24.772Z,72.84
2023-02-06T17:01:51.698Z,72.44
2023-02-06T17:04:18.626Z,72.32
2023-02-06T17:06:45.621Z,72.62
2023-02-06T17:09:16.372Z,72.30
2023-02-06T17:11:43.583Z,72.84
2023-02-06T17:14:11.610Z,72.76
2023-02-06T17:16:38.825Z,73.69
2023-02-06T17:19:05.739Z,73.53
2023-02-06T17:21:33.871Z,73.68
2023-02-06T17:24:00.856Z,73.96
2023-02-06T17:26:27.889Z,73.56
2023-02-06T17:28:55.130Z,72.43
2023-02-06T17:31:22.325Z,73.38
2023-02-06T17:33:49.897Z,72.81
2023-02-06T17:36:22.731Z,73.37
2023-02-06T17:38:49.801Z,74.09
2023-02-06T17:41:16.785Z,74.47
2023-02-06T17:43:43.946Z,76.92
2023-02-06T17:46:11.788Z,77.29
2023-02-06T17:48:42.799Z,78.52
2023-02-06T17:51:10.914Z,78.00
2023-02-06T17:53:38.233Z,77.83
2023-02-06T17:56:12.825Z,77.61
2023-02-06T17:58:41.486Z,77.41
2023-02-06T18:01:17.639Z,77.50
2023-02-06T18:03:46.975Z,77.47
2023-02-06T18:06:15.176Z,77.03
2023-02-06T18:08:43.013Z,77.81
2023-02-06T18:11:12.439Z,77.92
2023-02-06T18:13:40.397Z,76.74
2023-02-06T18:16:08.551Z,77.84
2023-02-06T18:18:35.553Z,78.18
2023-02-06T18:21:02.485Z,79.11
2023-02-06T18:23:29.443Z,79.16
2023-02-06T18:26:02.876Z,79.71
2023-02-06T18:28:30.394Z,79.19
2023-02-06T18:30:57.744Z,79.07
2023-02-06T18:33:24.824Z,78.93
2023-02-06T18:35:51.811Z,79.41
2023-02-06T18:38:19.157Z,79.60
2023-02-06T18:40:46.862Z,80.08
2023-02-06T18:43:14.896Z,79.68
2023-02-06T18:45:42.530Z,79.39
2023-02-06T18:48:13.550Z,79.43
2023-02-06T18:50:42.549Z,79.72
2023-02-06T18:53:10.102Z,79.27
2023-02-06T18:55:37.468Z,78.77
2023-02-06T18:58:05.283Z,78.93
2023-02-06T19:00:35.434Z,78.95
2023-02-06T19:03:02.702Z,79.84
2023-02-06T19:05:30.833Z,79.10
2023-02-06T19:07:58.225Z,78.74
2023-02-06T19:10:25.985Z,79.43
2023-02-06T19:12:52.897Z,80.09
2023-02-06T19:15:19.828Z,79.85
2023-02-06T19:17:46.840Z,79.91
2023-02-06T19:20:14.133Z,80.23
2023-02-06T19:22:41.156Z,80.47
2023-02-06T19:25:11.348Z,79.42
2023-02-06T19:27:39.545Z,79.65
2023-02-06T19:30:08.079Z,79.86
2023-02-06T19:32:35.575Z,80.09
2023-02-06T19:35:03.324Z,79.74
2023-02-06T19:37:30.487Z,79.37
2023-02-06T19:39:57.466Z,80.25
2023-02-06T19:42:24.438Z,79.52
2023-02-06T19:44:54.017Z,79.74
2023-02-06T19:47:21.774Z,79.06
2023-02-06T19:49:52.659Z,79.37
2023-02-06T19:52:20.335Z,80.46
2023-02-06T19:54:47.985Z,79.90
2023-02-06T19:57:16.211Z,80.28
2023-02-06T19:59:43.173Z,80.07
2023-02-06T20:02:14.538Z,79.80
2023-02-06T20:04:41.648Z,79.74
2023-02-06T20:07:08.739Z,79.16
2023-02-06T20:09:36.647Z,79.04
2023-02-06T20:12:03.735Z,79.56
2023-02-06T20:14:30.701Z,79.74
2023-02-06T20:16:57.727Z,79.38
2023-02-06T20:19:27.888Z,79.54
2023-02-06T20:21:58.722Z,78.62
2023-02-06T20:24:28.963Z,78.88
2023-02-06T20:26:59.218Z,78.85
2023-02-06T20:29:31.333Z,77.80
2023-02-06T20:31:59.715Z,78.19
2023-02-06T20:34:27.179Z,78.72
2023-02-06T20:36:54.983Z,78.52
2023-02-06T20:39:22.122Z,78.21
2023-02-06T20:41:50.423Z,79.03
2023-02-06T20:44:18.841Z,80.48
2023-02-06T20:46:47.664Z,79.88
2023-02-06T20:49:17.959Z,79.78
2023-02-06T20:51:45.087Z,80.07
2023-02-06T20:54:12.574Z,79.12
2023-02-06T20:56:40.287Z,78.62
2023-02-06T20:59:08.636Z,78.24
2023-02-06T21:01:35.801Z,77.55
2023-02-06T21:04:08.809Z,76.62
2023-02-06T21:06:37.346Z,76.85
2023-02-06T21:09:06.445Z,76.50
2023-02-06T21:11:44.503Z,76.29
2023-02-06T21:14:11.873Z,76.54
2023-02-06T21:16:39.740Z,76.65
2023-02-06T21:19:09.234Z,76.20
2023-02-06T21:21:37.331Z,76.77
2023-02-06T21:24:04.718Z,77.53
2023-02-06T21:26:32.848Z,78.56
2023-02-06T21:29:00.630Z,79.59
2023-02-06T21:31:38.197Z,80.40
2023-02-06T21:34:27.954Z,80.21
2023-02-06T21:36:54.998Z,80.87
2023-02-06T21:39:27.050Z,79.03
2023-02-06T21:41:54.552Z,79.51
2023-02-06T21:44:24.034Z,79.28
2023-02-06T21:46:51.341Z,79.24
2023-02-06T21:49:19.762Z,78.48
2023-02-06T21:51:46.653Z,78.30
2023-02-06T21:54:13.539Z,79.76
2023-02-06T21:56:40.439Z,80.29
2023-02-06T21:59:08.369Z,80.20
2023-02-06T22:01:36.017Z,80.55
2023-02-06T22:04:04.055Z,81.04
2023-02-06T22:06:32.245Z,81.42
2023-02-06T22:09:05.520Z,81.13
2023-02-06T22:11:32.710Z,81.60
2023-02-06T22:14:04.070Z,81.12
2023-02-06T22:16:31.343Z,81.48
2023-02-06T22:18:58.630Z,80.50
2023-02-06T22:21:27.817Z,79.64
2023-02-06T22:24:00.602Z,79.14
2023-02-06T22:26:30.185Z,80.26
2023-02-06T22:28:59.107Z,80.61
2023-02-06T22:31:29.055Z,81.13
2023-02-06T22:33:58.182Z,78.74
2023-02-06T22:36:26.942Z,76.09
2023-02-06T22:39:14.790Z,76.01
2023-02-06T22:41:44.415Z,76.45
2023-02-06T22:44:16.495Z,79.19
2023-02-06T22:46:46.496Z,78.15
2023-02-06T22:49:13.787Z,78.31
2023-02-06T22:51:41.920Z,77.47
2023-02-06T22:54:09.577Z,77.51
2023-02-06T22:56:38.234Z,78.92
2023-02-06T22:59:13.966Z,77.42
2023-02-06T23:01:46.751Z,78.81
2023-02-06T23:04:18.894Z,79.36
2023-02-06T23:06:46.823Z,78.42
2023-02-06T23:09:23.808Z,77.03
2023-02-06T23:11:51.278Z,77.54
2023-02-06T23:14:19.459Z,76.48
2023-02-06T23:16:47.197Z,76.72
2023-02-06T23:19:14.988Z,74.73
2023-02-06T23:21:43.228Z,76.02
2023-02-06T23:24:11.119Z,76.01
2023-02-06T23:26:40.375Z,75.31
2023-02-06T23:29:08.600Z,74.63
2023-02-06T23:31:36.182Z,74.96
2023-02-06T23:34:03.342Z,74.82
2023-02-06T23:36:30.368Z,76.28
2023-02-06T23:38:57.273Z,75.85
2023-02-06T23:41:26.679Z,74.57
2023-02-06T23:44:05.483Z,74.82
2023-02-06T23:46:34.848Z,75.05
2023-02-06T23:49:01.789Z,74.46
2023-02-06T23:51:29.307Z,73.42
2023-02-06T23:53:56.320Z,72.70
2023-02-06T23:56:26.158Z,74.02
2023-02-06T23:58:54.870Z,74.41
